Latest Coastal Weather Observations for Maroochydore

IDQ60701

Issued at 10:42 am EST Friday 1 July 2016 (issued every 10 minutes, with the page automatically refreshed every 10 minutes)

About coastal observations | Map of coastal stations | Coastal observations for QLD | Marine services | Other Formats
Station Details ID: 040861 Name: SUNSHINE COAST AIRPORT Lat: -26.60 Lon: 153.09 Height: 3.3 m
Data from the previous 72 hours. | See also: Recent months at Maroochydore
Date/Time
EST
Temp
°C
Wind Pressure Rain since
9am
mm
Weather Cloud Vis
km
Sea
Height
m
Swell
Dir  Spd
kts
Gust
kts
hPa Trend Height
m
Period
s
Dir
01/10:30am 21.1 WSW 9 12 1019.9 - 0.0 - - 10 - - - -
01/10:00am 19.8 WSW 10 14 1020.2 - 0.0 - - 10 - - - -
01/09:30am 19.1 W 5 7 1020.5 - 0.0 - - 10 - - - -
01/09:00am 17.8 NW 5 7 1020.5 - 0.0 - - 10 - - - -
01/08:30am 16.1 WNW 5 7 1020.6 - 0.0 - - 10 - - - -
01/08:00am 13.9 W 5 8 1020.3 - 0.0 - - 10 - - - -
01/07:30am 12.1 W 5 7 1020.2 - 0.0 - - 10 - - - -
01/07:00am 10.7 W 6 7 1019.8 - 0.0 - - 10 - - - -
01/06:30am 10.6 WNW 4 5 1019.6 - 0.0 - - 10 - - - -
01/06:03am 10.5 WNW 6 7 1019.4 - 0.0 - - 10 - - - -
01/06:00am 10.3 WNW 6 6 1019.4 - 0.0 - - 10 - - - -
01/05:30am 10.3 W 4 5 1019.3 - 0.0 - - 1 - - - -
01/05:07am 11.1 WSW 3 4 1019.2 - 0.0 - - 6 - - - -
01/05:00am 11.3 WSW 2 4 1019.2 - 0.0 - - 10 - - - -
01/04:30am 11.8 W 4 5 1018.9 - 0.0 - Partly cloudy 10 - - - -
01/04:00am 12.2 NW 4 5 1018.8 - 0.0 - - 10 - - - -
01/03:30am 12.0 W 5 6 1018.9 - 0.0 - Partly cloudy 10 - - - -
01/03:00am 12.2 W 6 7 1019.0 - 0.0 - Mostly cloudy 10 - - - -
01/02:30am 12.0 WNW 6 7 1019.0 - 0.0 - Cloudy 10 - - - -
01/02:00am 11.8 W 7 7 1019.2 - 0.0 - Partly cloudy 10 - - - -
01/01:30am 12.0 WNW 6 6 1019.1 - 0.0 - - 10 - - - -
01/01:00am 12.4 WNW 6 7 1019.3 - 0.0 - - 10 - - - -
01/12:30am 13.0 WNW 7 8 1019.3 - 0.0 - - 10 - - - -
01/12:00am 13.1 NW 6 7 1019.6 - 0.0 - - 10 - - - -
 
Date/Time
EST
Temp
°C
Wind Pressure Rain since
9am
mm
Weather Cloud Vis
km
Sea
Height
m
Swell
Dir  Spd
kts
Gust
kts
hPa Trend Height
m
Period
s
Dir
30/11:30pm 12.2 W 5 5 1020.1 - 0.0 - - 10 - - - -
30/11:00pm 12.4 W 5 6 1020.3 - 0.0 - - 10 - - - -
30/10:30pm 11.8 W 5 6 1020.5 - 0.0 - - 10 - - - -
30/10:13pm 11.7 W 6 7 1020.6 - 0.0 - - 10 - - - -
30/10:00pm 11.7 W 5 6 1020.9 - 0.0 - - 5 - - - -
30/09:56pm 11.7 W 4 5 1020.9 - 0.0 - - 6 - - - -
30/09:30pm 11.8 W 3 4 1020.9 - 0.0 - - 9 - - - -
30/09:00pm 12.9 WSW 5 7 1021.1 - 0.0 - - 10 - - - -
30/08:30pm 13.0 WSW 5 6 1021.0 - 0.0 - - 10 - - - -
30/08:00pm 12.2 W 4 5 1020.9 - 0.0 - - 10 - - - -
30/07:30pm 13.2 WSW 4 5 1020.8 - 0.0 - - 10 - - - -
30/07:00pm 13.7 WNW 6 7 1020.6 - 0.0 - - 10 - - - -
30/06:30pm 15.4 NNE 5 7 1020.4 - 0.0 - - 10 - - - -
30/06:00pm 16.9 ENE 6 7 1020.4 - 0.0 - - 10 - - - -
30/05:30pm 17.2 ENE 6 7 1020.1 - 0.0 - - 10 - - - -
30/05:00pm 17.9 E 6 9 1020.0 - 0.0 - - 10 - - - -
30/04:30pm 18.5 ESE 5 8 1020.1 - 0.0 - - 10 - - - -
30/04:00pm 19.2 ESE 7 9 1020.2 - 0.0 - - 10 - - - -
30/03:30pm 19.8 ESE 7 9 1020.1 - 0.0 - - 10 - - - -
30/03:00pm 19.3 ESE 8 10 1020.2 - 0.0 - Mostly clear 10 - - - -
30/02:30pm 19.6 SE 9 11 1020.3 - 0.0 - Partly cloudy 10 - - - -
30/02:00pm 20.7 SE 8 11 1020.5 - 0.0 - - 10 - - - -
30/01:30pm 20.8 SE 9 11 1020.8 - 0.0 - - 10 - - - -
30/01:00pm 21.6 ESE 9 11 1021.3 - 0.0 - - 10 - - - -
30/12:30pm 22.0 ESE 9 11 1021.8 - 0.0 - Partly cloudy 10 - - - -
30/12:00pm 21.3 SSE 8 11 1022.2 - 0.0 - Partly cloudy 10 - - - -
30/11:30am 21.3 SSE 8 11 1022.7 - 0.0 - - 10 - - - -
30/11:00am 21.2 S 8 11 1023.1 - 0.0 - - 10 - - - -
30/10:30am 20.1 S 7 10 1023.4 - 0.0 - - 10 - - - -
30/10:00am 19.4 S 8 11 1023.6 - 0.0 - - 10 - - - -
30/09:30am 18.7 S 8 11 1023.6 - 0.0 - - 10 - - - -
30/09:00am 17.1 SSW 6 9 1023.6 - 0.0 - - 10 - - - -
30/08:30am 14.3 SW 5 7 1023.5 - 0.0 - - 10 - - - -
30/08:00am 12.2 WSW 2 5 1023.6 - 0.0 - - 10 - - - -
30/07:30am 9.5 W 2 4 1023.4 - 0.0 - - 10 - - - -
30/07:00am 7.8 W 5 6 1023.1 - 0.0 - - 10 - - - -
30/06:30am 7.7 WSW 4 5 1022.9 - 0.0 - - 10 - - - -
30/06:00am 7.3 WSW 5 6 1022.7 - 0.0 - - 10 - - - -
30/05:30am 7.9 W 3 4 1022.6 - 0.0 - Partly cloudy 10 - - - -
30/05:00am 8.3 WSW 3 4 1022.5 - 0.0 - Partly cloudy 10 - - - -
30/04:30am 8.9 SW 5 6 1022.4 - 0.0 - - 10 - - - -
30/04:00am 9.1 SW 5 6 1022.5 - 0.0 - - 10 - - - -
30/03:30am 9.5 WSW 5 7 1022.7 - 0.0 - Partly cloudy 10 - - - -
30/03:00am 8.7 WSW 6 7 1022.9 - 0.0 - Mostly clear 10 - - - -
30/02:30am 6.9 WSW 5 5 1023.2 - 0.0 - - 10 - - - -
30/02:00am 7.2 WSW 3 4 1023.5 - 0.0 - - 10 - - - -
30/01:30am 7.4 WSW 4 5 1024.0 - 0.0 - - 9 - - - -
30/01:00am 7.2 W 4 5 1024.4 - 0.0 - - 10 - - - -
30/12:30am 7.6 W 4 5 1024.4 - 0.0 - - 9 - - - -
30/12:00am 7.7 W 4 5 1024.4 - - - - - - - - -
 
Date/Time
EST
Temp
°C
Wind Pressure Rain since
9am
mm
Weather Cloud Vis
km
Sea
Height
m
Swell
Dir  Spd
kts
Gust
kts
hPa Trend Height
m
Period
s
Dir
29/11:30pm 7.9 W 4 4 1024.6 - 0.0 - - 10 - - - -
29/11:00pm 7.9 WSW 4 4 1024.8 - 0.0 - - 10 - - - -
29/10:30pm 8.5 W 4 4 1025.1 - 0.0 - - 10 - - - -
29/10:00pm 8.6 W 4 5 1025.2 - 0.0 - - 10 - - - -
29/09:30pm 8.8 W 3 5 1025.0 - 0.0 - - 10 - - - -
29/09:00pm 9.1 W 4 5 1025.1 - 0.0 - - 10 - - - -
29/08:30pm 9.3 WSW 4 4 1025.2 - 0.0 - - 10 - - - -
29/08:00pm 10.1 W 4 5 1025.4 - 0.0 - - 10 - - - -
29/07:30pm 10.7 WSW 5 5 1025.1 - 0.0 - - 10 - - - -
29/07:00pm 11.3 SSW 3 4 1025.2 - 0.0 - - 10 - - - -
29/06:30pm 13.4 SW 4 5 1024.9 - 0.0 - - 10 - - - -
29/06:00pm 14.8 S 5 6 1024.7 - 0.0 - - 10 - - - -
29/05:30pm 15.6 S 6 7 1024.6 - 0.0 - - 10 - - - -
29/05:00pm 16.6 SSE 8 11 1024.2 - 0.0 - - 10 - - - -
29/04:30pm 17.6 SSE 9 12 1023.9 - 0.0 - - 10 - - - -
29/04:00pm 18.6 SSE 11 14 1023.7 - 0.0 - - 10 - - - -
29/03:30pm 19.4 SSE 9 13 1023.6 - 0.0 - - 10 - - - -
29/03:00pm 19.8 SE 11 15 1023.4 - 0.0 - - 10 - - - -
29/02:30pm 20.0 SE 13 17 1023.1 - 0.0 - - 10 - - - -
29/02:00pm 20.4 SE 13 16 1023.1 - 0.0 - - 10 - - - -
29/01:30pm 20.5 SE 13 17 1023.3 - 0.0 - - 10 - - - -
29/01:00pm 20.1 SSE 11 15 1023.6 - 0.0 - - 10 - - - -
29/12:30pm 21.1 S 12 17 1023.9 - 0.0 - - 10 - - - -
29/12:00pm 20.2 S 12 16 1024.5 - 0.0 - - 10 - - - -
29/11:30am 19.8 S 12 16 1025.0 - 0.0 - - 10 - - - -
29/11:00am 19.4 S 12 17 1025.5 - 0.0 - - 10 - - - -
29/10:30am 18.7 S 14 19 1025.8 - 0.0 - - 10 - - - -
29/10:00am 18.6 S 12 19 1025.8 - 0.0 - - 10 - - - -
29/09:30am 17.8 S 11 14 1025.8 - 0.0 - - 10 - - - -
29/09:00am 16.7 SSW 8 11 1025.8 - 0.0 - - 10 - - - -
29/08:30am 15.1 SW 8 11 1025.6 - 0.0 - - 10 - - - -
29/08:00am 13.3 SW 7 9 1025.4 - 0.0 - - 10 - - - -
29/07:30am 11.8 SW 8 9 1025.1 - 0.0 - - 10 - - - -
29/07:00am 10.2 SW 7 8 1024.8 - 0.0 - - 10 - - - -
29/06:30am 9.8 SW 7 8 1024.7 - 0.0 - - 10 - - - -
29/06:00am 9.3 WSW 8 9 1024.5 - 0.0 - - 10 - - - -
29/05:30am 9.5 SW 8 9 1024.0 - 0.0 - - 10 - - - -
29/05:00am 9.4 WSW 7 8 1023.8 - 0.0 - - 10 - - - -
29/04:30am 9.4 SW 8 9 1023.6 - 0.0 - - 10 - - - -
29/04:00am 7.8 SW 6 8 1023.5 - 0.0 - - 10 - - - -
29/03:30am 8.1 WSW 6 7 1023.3 - 0.0 - - 10 - - - -
29/03:00am 8.5 SW 6 7 1023.1 - 0.0 - - 10 - - - -
29/02:30am 7.6 WSW 6 7 1023.2 - 0.0 - - 10 - - - -
29/02:00am 8.5 WSW 6 6 1023.4 - 0.0 - - 10 - - - -
29/01:30am 8.3 WSW 6 8 1023.5 - 0.0 - - 10 - - - -
29/01:00am 8.8 WSW 6 8 1023.6 - 0.0 - - 10 - - - -
29/12:30am 8.9 WSW 6 7 1023.8 - 0.0 - - 10 - - - -
29/12:00am 8.7 W 5 6 1023.7 - 0.0 - - 10 - - - -
 
Date/Time
EST
Temp
°C
Wind Pressure Rain since
9am
mm
Weather Cloud Vis
km
Sea
Height
m
Swell
Dir  Spd
kts
Gust
kts
hPa Trend Height
m
Period
s
Dir
28/11:30pm 9.3 WSW 7 8 1023.8 - 0.0 - - 10 - - - -
28/11:00pm 10.0 WSW 8 9 1023.7 - 0.0 - - 10 - - - -
28/10:30pm 10.0 W 8 10 1023.8 - 0.0 - - 10 - - - -
28/10:00pm 10.1 WSW 6 7 1023.6 - 0.0 - - 10 - - - -
28/09:30pm 10.6 WSW 6 9 1023.5 - 0.0 - - 10 - - - -
28/09:00pm 10.0 W 7 8 1023.7 - 0.0 - - 10 - - - -
28/08:30pm 10.5 W 6 8 1023.6 - 0.0 - - 10 - - - -
28/08:00pm 10.5 W 8 9 1023.5 - 0.0 - - 10 - - - -
28/07:30pm 11.1 W 8 9 1023.3 - 0.0 - - 10 - - - -
28/07:00pm 9.7 W 7 8 1023.0 - 0.0 - - 10 - - - -
28/06:30pm 10.1 W 7 8 1022.6 - 0.0 - - 10 - - - -
28/06:00pm 10.7 W 6 7 1022.2 - 0.0 - - 10 - - - -
28/05:30pm 11.8 W 5 6 1021.9 - 0.0 - - 10 - - - -
28/05:00pm 13.9 W 6 6 1021.3 - 0.0 - - 10 - - - -
28/04:30pm 15.7 W 7 9 1020.9 - 0.0 - - 10 - - - -
28/04:00pm 17.1 WSW 9 13 1020.6 - 0.0 - - 10 - - - -
28/03:30pm 17.6 WSW 9 13 1020.2 - 0.0 - - 10 - - - -
28/03:00pm 18.0 WSW 9 15 1019.9 - 0.0 - - 10 - - - -
28/02:30pm 18.1 WSW 11 15 1019.7 - 0.0 - - 10 - - - -
28/02:00pm 18.5 WSW 11 15 1019.7 - 0.0 - - 10 - - - -
28/01:30pm 18.4 WSW 11 15 1019.6 - 0.0 - - 10 - - - -
28/01:00pm 18.4 SW 10 15 1019.7 - 0.0 - - 10 - - - -
28/12:30pm 17.7 SW 9 12 1019.8 - 0.0 - - 10 - - - -
28/12:00pm 17.0 WSW 11 15 1020.0 - 0.0 - - 10 - - - -
28/11:30am 16.1 WSW 11 15 1020.5 - 0.0 - - 10 - - - -
28/11:00am 15.3 WSW 13 18 1020.8 - 0.0 - - 10 - - - -

Other Formats:

Comma delimited format used in spreadsheet applications
http://www.bom.gov.au/fwo/IDQ60701/IDQ60701.94569.axf

JavaScript Object Notation format (JSON) in row-major order
http://www.bom.gov.au/fwo/IDQ60701/IDQ60701.94569.json